<?xml version="1.0" encoding="UTF-8" standalone="no" ?>
<gpx xmlns="http://www.topografix.com/GPX/1/1" xmlns:xsi="http://www.w3.org/2001/XMLSchema-instance" xsi:schemaLocation="http://www.topografix.com/GPX/1/1 http://www.topografix.com/GPX/1/1/gpx.xsd" version="1.1" creator="VisuGPX - https://www.visugpx.com">
  <metadata>
    <name>jour 2</name>
  </metadata>
  <trk>
    <name><![CDATA[Randonnée du 18/04/2018 à 17:51]]></name>
    <trkseg>
      <trkpt lat="48.0356" lon="6.94501">
        <ele>1163</ele>
        <time>2018-06-03T13:56:26+02:00</time>
      </trkpt>
      <trkpt lat="48.03258" lon="6.94192">
        <ele>1150</ele>
        <time>2018-06-03T13:56:31+02:00</time>
      </trkpt>
      <trkpt lat="48.03215" lon="6.94021">
        <ele>1137</ele>
        <time>2018-06-03T13:56:36+02:00</time>
      </trkpt>
      <trkpt lat="48.03089" lon="6.93943">
        <ele>1132</ele>
        <time>2018-06-03T13:56:41+02:00</time>
      </trkpt>
      <trkpt lat="48.02854" lon="6.93999">
        <ele>1114</ele>
        <time>2018-06-03T13:56:46+02:00</time>
      </trkpt>
      <trkpt lat="48.02742" lon="6.93815">
        <ele>1103</ele>
        <time>2018-06-03T13:56:51+02:00</time>
      </trkpt>
      <trkpt lat="48.02618" lon="6.93433">
        <ele>1081</ele>
        <time>2018-06-03T13:56:56+02:00</time>
      </trkpt>
      <trkpt lat="48.02521" lon="6.9321">
        <ele>1077</ele>
        <time>2018-06-03T13:57:01+02:00</time>
      </trkpt>
      <trkpt lat="48.0255" lon="6.93012">
        <ele>1093</ele>
        <time>2018-06-03T13:57:06+02:00</time>
      </trkpt>
      <trkpt lat="48.02541" lon="6.92974">
        <ele>1095</ele>
        <time>2018-06-03T13:57:11+02:00</time>
      </trkpt>
      <trkpt lat="48.02444" lon="6.92922">
        <ele>1105</ele>
        <time>2018-06-03T13:57:16+02:00</time>
      </trkpt>
      <trkpt lat="48.02401" lon="6.92905">
        <ele>1103</ele>
        <time>2018-06-03T13:57:21+02:00</time>
      </trkpt>
      <trkpt lat="48.02277" lon="6.93051">
        <ele>1110</ele>
        <time>2018-06-03T13:57:26+02:00</time>
      </trkpt>
      <trkpt lat="48.02053" lon="6.93158">
        <ele>1107</ele>
        <time>2018-06-03T13:57:31+02:00</time>
      </trkpt>
      <trkpt lat="48.01807" lon="6.93162">
        <ele>1111</ele>
        <time>2018-06-03T13:57:36+02:00</time>
      </trkpt>
      <trkpt lat="48.01689" lon="6.93008">
        <ele>1101</ele>
        <time>2018-06-03T13:57:41+02:00</time>
      </trkpt>
      <trkpt lat="48.0166" lon="6.92982">
        <ele>1101</ele>
        <time>2018-06-03T13:57:46+02:00</time>
      </trkpt>
      <trkpt lat="48.01597" lon="6.93304">
        <ele>1068</ele>
        <time>2018-06-03T13:57:51+02:00</time>
      </trkpt>
      <trkpt lat="48.01591" lon="6.93059">
        <ele>1069</ele>
        <time>2018-06-03T13:57:56+02:00</time>
      </trkpt>
      <trkpt lat="48.01551" lon="6.92974">
        <ele>1065</ele>
        <time>2018-06-03T13:58:01+02:00</time>
      </trkpt>
      <trkpt lat="48.0139" lon="6.92901">
        <ele>1031</ele>
        <time>2018-06-03T13:58:06+02:00</time>
      </trkpt>
      <trkpt lat="48.01284" lon="6.92853">
        <ele>1019</ele>
        <time>2018-06-03T13:58:11+02:00</time>
      </trkpt>
      <trkpt lat="48.01232" lon="6.92815">
        <ele>1020</ele>
        <time>2018-06-03T13:58:16+02:00</time>
      </trkpt>
      <trkpt lat="48.01164" lon="6.92879">
        <ele>1003</ele>
        <time>2018-06-03T13:58:21+02:00</time>
      </trkpt>
      <trkpt lat="48.01112" lon="6.92875">
        <ele>1009</ele>
        <time>2018-06-03T13:58:26+02:00</time>
      </trkpt>
      <trkpt lat="48.01026" lon="6.93021">
        <ele>971</ele>
        <time>2018-06-03T13:58:31+02:00</time>
      </trkpt>
      <trkpt lat="48.00937" lon="6.93004">
        <ele>970</ele>
        <time>2018-06-03T13:58:36+02:00</time>
      </trkpt>
      <trkpt lat="48.00822" lon="6.92866">
        <ele>953</ele>
        <time>2018-06-03T13:58:41+02:00</time>
      </trkpt>
      <trkpt lat="48.00805" lon="6.92703">
        <ele>943</ele>
        <time>2018-06-03T13:58:46+02:00</time>
      </trkpt>
      <trkpt lat="48.0077" lon="6.92802">
        <ele>935</ele>
        <time>2018-06-03T13:58:51+02:00</time>
      </trkpt>
      <trkpt lat="48.00776" lon="6.92939">
        <ele>927</ele>
        <time>2018-06-03T13:58:56+02:00</time>
      </trkpt>
      <trkpt lat="48.00848" lon="6.93149">
        <ele>910</ele>
        <time>2018-06-03T13:59:01+02:00</time>
      </trkpt>
      <trkpt lat="48.00928" lon="6.93222">
        <ele>907</ele>
        <time>2018-06-03T13:59:06+02:00</time>
      </trkpt>
      <trkpt lat="48.00994" lon="6.93235">
        <ele>906</ele>
        <time>2018-06-03T13:59:11+02:00</time>
      </trkpt>
      <trkpt lat="48.01086" lon="6.93257">
        <ele>896</ele>
        <time>2018-06-03T13:59:16+02:00</time>
      </trkpt>
      <trkpt lat="48.01106" lon="6.933">
        <ele>893</ele>
        <time>2018-06-03T13:59:21+02:00</time>
      </trkpt>
      <trkpt lat="48.01" lon="6.93424">
        <ele>867</ele>
        <time>2018-06-03T13:59:26+02:00</time>
      </trkpt>
      <trkpt lat="48.00943" lon="6.93437">
        <ele>846</ele>
        <time>2018-06-03T13:59:31+02:00</time>
      </trkpt>
      <trkpt lat="48.00954" lon="6.93557">
        <ele>833</ele>
        <time>2018-06-03T13:59:36+02:00</time>
      </trkpt>
      <trkpt lat="48.01009" lon="6.93673">
        <ele>822</ele>
        <time>2018-06-03T13:59:41+02:00</time>
      </trkpt>
      <trkpt lat="48.01195" lon="6.93952">
        <ele>786</ele>
        <time>2018-06-03T13:59:46+02:00</time>
      </trkpt>
      <trkpt lat="48.01284" lon="6.94038">
        <ele>776</ele>
        <time>2018-06-03T13:59:51+02:00</time>
      </trkpt>
      <trkpt lat="48.01324" lon="6.94119">
        <ele>767</ele>
        <time>2018-06-03T13:59:56+02:00</time>
      </trkpt>
      <trkpt lat="48.01258" lon="6.94111">
        <ele>758</ele>
        <time>2018-06-03T14:00:01+02:00</time>
      </trkpt>
      <trkpt lat="48.01109" lon="6.93978">
        <ele>761</ele>
        <time>2018-06-03T14:00:06+02:00</time>
      </trkpt>
      <trkpt lat="48.01069" lon="6.94094">
        <ele>751</ele>
        <time>2018-06-03T14:00:11+02:00</time>
      </trkpt>
      <trkpt lat="48.01092" lon="6.94287">
        <ele>766</ele>
        <time>2018-06-03T14:00:16+02:00</time>
      </trkpt>
      <trkpt lat="48.01192" lon="6.94343">
        <ele>767</ele>
        <time>2018-06-03T14:00:21+02:00</time>
      </trkpt>
      <trkpt lat="48.01244" lon="6.94433">
        <ele>776</ele>
        <time>2018-06-03T14:00:26+02:00</time>
      </trkpt>
      <trkpt lat="48.01313" lon="6.9451">
        <ele>779</ele>
        <time>2018-06-03T14:00:31+02:00</time>
      </trkpt>
      <trkpt lat="48.0135" lon="6.94716">
        <ele>819</ele>
        <time>2018-06-03T14:00:36+02:00</time>
      </trkpt>
      <trkpt lat="48.01344" lon="6.94832">
        <ele>835</ele>
        <time>2018-06-03T14:00:41+02:00</time>
      </trkpt>
      <trkpt lat="48.0127" lon="6.94922">
        <ele>856</ele>
        <time>2018-06-03T14:00:46+02:00</time>
      </trkpt>
      <trkpt lat="48.01155" lon="6.94973">
        <ele>889</ele>
        <time>2018-06-03T14:00:51+02:00</time>
      </trkpt>
      <trkpt lat="48.0108" lon="6.95068">
        <ele>910</ele>
        <time>2018-06-03T14:00:56+02:00</time>
      </trkpt>
      <trkpt lat="48.01026" lon="6.95136">
        <ele>932</ele>
        <time>2018-06-03T14:01:01+02:00</time>
      </trkpt>
      <trkpt lat="48.00997" lon="6.95287">
        <ele>951</ele>
        <time>2018-06-03T14:01:06+02:00</time>
      </trkpt>
      <trkpt lat="48.01011" lon="6.95497">
        <ele>971</ele>
        <time>2018-06-03T14:01:11+02:00</time>
      </trkpt>
      <trkpt lat="48.00977" lon="6.95634">
        <ele>982</ele>
        <time>2018-06-03T14:01:16+02:00</time>
      </trkpt>
      <trkpt lat="48.0102" lon="6.95673">
        <ele>983</ele>
        <time>2018-06-03T14:01:21+02:00</time>
      </trkpt>
      <trkpt lat="48.00986" lon="6.95802">
        <ele>991</ele>
        <time>2018-06-03T14:01:26+02:00</time>
      </trkpt>
      <trkpt lat="48.00971" lon="6.95926">
        <ele>995</ele>
        <time>2018-06-03T14:01:31+02:00</time>
      </trkpt>
      <trkpt lat="48.00934" lon="6.96068">
        <ele>993</ele>
        <time>2018-06-03T14:01:36+02:00</time>
      </trkpt>
      <trkpt lat="48.00914" lon="6.96179">
        <ele>1000</ele>
        <time>2018-06-03T14:01:41+02:00</time>
      </trkpt>
      <trkpt lat="48.00828" lon="6.96244">
        <ele>999</ele>
        <time>2018-06-03T14:01:46+02:00</time>
      </trkpt>
      <trkpt lat="48.00773" lon="6.96334">
        <ele>999</ele>
        <time>2018-06-03T14:01:51+02:00</time>
      </trkpt>
      <trkpt lat="48.00713" lon="6.96394">
        <ele>1001</ele>
        <time>2018-06-03T14:01:56+02:00</time>
      </trkpt>
      <trkpt lat="48.00647" lon="6.96454">
        <ele>1000</ele>
        <time>2018-06-03T14:02:01+02:00</time>
      </trkpt>
      <trkpt lat="48.00601" lon="6.9657">
        <ele>1008</ele>
        <time>2018-06-03T14:02:06+02:00</time>
      </trkpt>
      <trkpt lat="48.00506" lon="6.96626">
        <ele>1009</ele>
        <time>2018-06-03T14:02:11+02:00</time>
      </trkpt>
      <trkpt lat="48.00452" lon="6.96651">
        <ele>1018</ele>
        <time>2018-06-03T14:02:16+02:00</time>
      </trkpt>
      <trkpt lat="48.00377" lon="6.966">
        <ele>1024</ele>
        <time>2018-06-03T14:02:21+02:00</time>
      </trkpt>
      <trkpt lat="48.00383" lon="6.96733">
        <ele>1025</ele>
        <time>2018-06-03T14:02:26+02:00</time>
      </trkpt>
      <trkpt lat="48.00299" lon="6.96604">
        <ele>1035</ele>
        <time>2018-06-03T14:02:31+02:00</time>
      </trkpt>
      <trkpt lat="48.00276" lon="6.96604">
        <ele>1037</ele>
        <time>2018-06-03T14:02:36+02:00</time>
      </trkpt>
      <trkpt lat="48.0015" lon="6.96523">
        <ele>1045</ele>
        <time>2018-06-03T14:02:41+02:00</time>
      </trkpt>
      <trkpt lat="48.00041" lon="6.96445">
        <ele>1053</ele>
        <time>2018-06-03T14:02:46+02:00</time>
      </trkpt>
      <trkpt lat="47.99946" lon="6.96381">
        <ele>1064</ele>
        <time>2018-06-03T14:02:51+02:00</time>
      </trkpt>
      <trkpt lat="47.99808" lon="6.96304">
        <ele>1068</ele>
        <time>2018-06-03T14:02:56+02:00</time>
      </trkpt>
      <trkpt lat="47.99765" lon="6.96231">
        <ele>1080</ele>
        <time>2018-06-03T14:03:01+02:00</time>
      </trkpt>
      <trkpt lat="47.99762" lon="6.96145">
        <ele>1079</ele>
        <time>2018-06-03T14:03:06+02:00</time>
      </trkpt>
      <trkpt lat="47.99834" lon="6.96003">
        <ele>1097</ele>
        <time>2018-06-03T14:03:11+02:00</time>
      </trkpt>
      <trkpt lat="47.99912" lon="6.95896">
        <ele>1100</ele>
        <time>2018-06-03T14:03:16+02:00</time>
      </trkpt>
      <trkpt lat="47.99978" lon="6.95789">
        <ele>1084</ele>
        <time>2018-06-03T14:03:21+02:00</time>
      </trkpt>
      <trkpt lat="48.00047" lon="6.95681">
        <ele>1082</ele>
        <time>2018-06-03T14:03:26+02:00</time>
      </trkpt>
      <trkpt lat="48.00041" lon="6.95548">
        <ele>1066</ele>
        <time>2018-06-03T14:03:31+02:00</time>
      </trkpt>
      <trkpt lat="48.00012" lon="6.95523">
        <ele>1054</ele>
        <time>2018-06-03T14:03:36+02:00</time>
      </trkpt>
      <trkpt lat="47.99998" lon="6.95312">
        <ele>1045</ele>
        <time>2018-06-03T14:03:41+02:00</time>
      </trkpt>
      <trkpt lat="47.99981" lon="6.94969">
        <ele>1013</ele>
        <time>2018-06-03T14:03:46+02:00</time>
      </trkpt>
      <trkpt lat="47.99995" lon="6.94862">
        <ele>1007</ele>
        <time>2018-06-03T14:03:51+02:00</time>
      </trkpt>
      <trkpt lat="48.00012" lon="6.94819">
        <ele>1008</ele>
        <time>2018-06-03T14:03:56+02:00</time>
      </trkpt>
      <trkpt lat="48.00075" lon="6.94767">
        <ele>1022</ele>
        <time>2018-06-03T14:04:01+02:00</time>
      </trkpt>
      <trkpt lat="48.0005" lon="6.9454">
        <ele>969</ele>
        <time>2018-06-03T14:04:06+02:00</time>
      </trkpt>
      <trkpt lat="48.00038" lon="6.94454">
        <ele>971</ele>
        <time>2018-06-03T14:04:11+02:00</time>
      </trkpt>
      <trkpt lat="48.00015" lon="6.94398">
        <ele>981</ele>
        <time>2018-06-03T14:04:16+02:00</time>
      </trkpt>
      <trkpt lat="48.00044" lon="6.94252">
        <ele>979</ele>
        <time>2018-06-03T14:04:21+02:00</time>
      </trkpt>
      <trkpt lat="48.00021" lon="6.94197">
        <ele>984</ele>
        <time>2018-06-03T14:04:26+02:00</time>
      </trkpt>
      <trkpt lat="47.99923" lon="6.94111">
        <ele>1011</ele>
        <time>2018-06-03T14:04:31+02:00</time>
      </trkpt>
      <trkpt lat="47.99708" lon="6.94064">
        <ele>1047</ele>
        <time>2018-06-03T14:04:36+02:00</time>
      </trkpt>
      <trkpt lat="47.9959" lon="6.94059">
        <ele>1066</ele>
        <time>2018-06-03T14:04:41+02:00</time>
      </trkpt>
      <trkpt lat="47.99349" lon="6.93931">
        <ele>1105</ele>
        <time>2018-06-03T14:04:46+02:00</time>
      </trkpt>
      <trkpt lat="47.99234" lon="6.9384">
        <ele>1121</ele>
        <time>2018-06-03T14:04:51+02:00</time>
      </trkpt>
      <trkpt lat="47.99136" lon="6.93755">
        <ele>1127</ele>
        <time>2018-06-03T14:04:56+02:00</time>
      </trkpt>
      <trkpt lat="47.9905" lon="6.93742">
        <ele>1137</ele>
        <time>2018-06-03T14:05:01+02:00</time>
      </trkpt>
      <trkpt lat="47.98996" lon="6.93896">
        <ele>1147</ele>
        <time>2018-06-03T14:05:06+02:00</time>
      </trkpt>
      <trkpt lat="47.98944" lon="6.94012">
        <ele>1147</ele>
        <time>2018-06-03T14:05:11+02:00</time>
      </trkpt>
      <trkpt lat="47.9895" lon="6.94128">
        <ele>1154</ele>
        <time>2018-06-03T14:05:16+02:00</time>
      </trkpt>
      <trkpt lat="47.98918" lon="6.94244">
        <ele>1145</ele>
        <time>2018-06-03T14:05:21+02:00</time>
      </trkpt>
      <trkpt lat="47.98941" lon="6.9442">
        <ele>1144</ele>
        <time>2018-06-03T14:05:26+02:00</time>
      </trkpt>
      <trkpt lat="47.9903" lon="6.94634">
        <ele>1144</ele>
        <time>2018-06-03T14:05:31+02:00</time>
      </trkpt>
      <trkpt lat="47.98998" lon="6.94621">
        <ele>1136</ele>
        <time>2018-06-03T14:05:36+02:00</time>
      </trkpt>
      <trkpt lat="47.98964" lon="6.94557">
        <ele>1134</ele>
        <time>2018-06-03T14:05:41+02:00</time>
      </trkpt>
      <trkpt lat="47.98961" lon="6.94591">
        <ele>1128</ele>
        <time>2018-06-03T14:05:46+02:00</time>
      </trkpt>
      <trkpt lat="47.98915" lon="6.9451">
        <ele>1124</ele>
        <time>2018-06-03T14:05:51+02:00</time>
      </trkpt>
      <trkpt lat="47.98855" lon="6.94506">
        <ele>1109</ele>
        <time>2018-06-03T14:05:56+02:00</time>
      </trkpt>
      <trkpt lat="47.98815" lon="6.94549">
        <ele>1102</ele>
        <time>2018-06-03T14:06:01+02:00</time>
      </trkpt>
      <trkpt lat="47.98703" lon="6.94488">
        <ele>1098</ele>
        <time>2018-06-03T14:06:06+02:00</time>
      </trkpt>
      <trkpt lat="47.9853" lon="6.94278">
        <ele>1087</ele>
        <time>2018-06-03T14:06:11+02:00</time>
      </trkpt>
      <trkpt lat="47.9849" lon="6.94197">
        <ele>1086</ele>
        <time>2018-06-03T14:06:16+02:00</time>
      </trkpt>
      <trkpt lat="47.98338" lon="6.94145">
        <ele>1091</ele>
        <time>2018-06-03T14:06:21+02:00</time>
      </trkpt>
      <trkpt lat="47.98226" lon="6.94102">
        <ele>1086</ele>
        <time>2018-06-03T14:06:26+02:00</time>
      </trkpt>
      <trkpt lat="47.98088" lon="6.93995">
        <ele>1060</ele>
        <time>2018-06-03T14:06:31+02:00</time>
      </trkpt>
      <trkpt lat="47.9799" lon="6.94046">
        <ele>1068</ele>
        <time>2018-06-03T14:06:36+02:00</time>
      </trkpt>
      <trkpt lat="47.97967" lon="6.94025">
        <ele>1069</ele>
        <time>2018-06-03T14:06:41+02:00</time>
      </trkpt>
      <trkpt lat="47.97953" lon="6.93707">
        <ele>1049</ele>
        <time>2018-06-03T14:06:46+02:00</time>
      </trkpt>
      <trkpt lat="47.97895" lon="6.93403">
        <ele>1019</ele>
        <time>2018-06-03T14:06:51+02:00</time>
      </trkpt>
      <trkpt lat="47.97798" lon="6.93403">
        <ele>1019</ele>
        <time>2018-06-03T14:06:56+02:00</time>
      </trkpt>
      <trkpt lat="47.97689" lon="6.93471">
        <ele>1018</ele>
        <time>2018-06-03T14:07:01+02:00</time>
      </trkpt>
      <trkpt lat="47.97614" lon="6.93493">
        <ele>1015</ele>
        <time>2018-06-03T14:07:06+02:00</time>
      </trkpt>
      <trkpt lat="47.97579" lon="6.93536">
        <ele>1024</ele>
        <time>2018-06-03T14:07:11+02:00</time>
      </trkpt>
      <trkpt lat="47.97473" lon="6.9339">
        <ele>1012</ele>
        <time>2018-06-03T14:07:16+02:00</time>
      </trkpt>
      <trkpt lat="47.9741" lon="6.93278">
        <ele>1011</ele>
        <time>2018-06-03T14:07:21+02:00</time>
      </trkpt>
      <trkpt lat="47.97344" lon="6.93162">
        <ele>1012</ele>
        <time>2018-06-03T14:07:26+02:00</time>
      </trkpt>
      <trkpt lat="47.97306" lon="6.93227">
        <ele>1019</ele>
        <time>2018-06-03T14:07:31+02:00</time>
      </trkpt>
      <trkpt lat="47.97263" lon="6.93197">
        <ele>1022</ele>
        <time>2018-06-03T14:07:36+02:00</time>
      </trkpt>
      <trkpt lat="47.97229" lon="6.93227">
        <ele>1022</ele>
        <time>2018-06-03T14:07:41+02:00</time>
      </trkpt>
      <trkpt lat="47.9718" lon="6.93227">
        <ele>1029</ele>
        <time>2018-06-03T14:07:46+02:00</time>
      </trkpt>
      <trkpt lat="47.97157" lon="6.93386">
        <ele>1019</ele>
        <time>2018-06-03T14:07:51+02:00</time>
      </trkpt>
      <trkpt lat="47.97137" lon="6.93476">
        <ele>999</ele>
        <time>2018-06-03T14:07:56+02:00</time>
      </trkpt>
      <trkpt lat="47.97022" lon="6.93386">
        <ele>1007</ele>
        <time>2018-06-03T14:08:01+02:00</time>
      </trkpt>
      <trkpt lat="47.96936" lon="6.93458">
        <ele>993</ele>
        <time>2018-06-03T14:08:06+02:00</time>
      </trkpt>
      <trkpt lat="47.9691" lon="6.93497">
        <ele>989</ele>
        <time>2018-06-03T14:08:11+02:00</time>
      </trkpt>
      <trkpt lat="47.9691" lon="6.93587">
        <ele>973</ele>
        <time>2018-06-03T14:08:16+02:00</time>
      </trkpt>
      <trkpt lat="47.96867" lon="6.9363">
        <ele>970</ele>
        <time>2018-06-03T14:08:21+02:00</time>
      </trkpt>
      <trkpt lat="47.96763" lon="6.93592">
        <ele>972</ele>
        <time>2018-06-03T14:08:26+02:00</time>
      </trkpt>
      <trkpt lat="47.96738" lon="6.93742">
        <ele>956</ele>
        <time>2018-06-03T14:08:31+02:00</time>
      </trkpt>
      <trkpt lat="47.96689" lon="6.93785">
        <ele>952</ele>
        <time>2018-06-03T14:08:36+02:00</time>
      </trkpt>
      <trkpt lat="47.96804" lon="6.93883">
        <ele>950</ele>
        <time>2018-06-03T14:08:41+02:00</time>
      </trkpt>
      <trkpt lat="47.96933" lon="6.93969">
        <ele>932</ele>
        <time>2018-06-03T14:08:46+02:00</time>
      </trkpt>
      <trkpt lat="47.9697" lon="6.94085">
        <ele>925</ele>
        <time>2018-06-03T14:08:51+02:00</time>
      </trkpt>
      <trkpt lat="47.96967" lon="6.94291">
        <ele>909</ele>
        <time>2018-06-03T14:08:56+02:00</time>
      </trkpt>
      <trkpt lat="47.96867" lon="6.94377">
        <ele>894</ele>
        <time>2018-06-03T14:09:01+02:00</time>
      </trkpt>
      <trkpt lat="47.96809" lon="6.94411">
        <ele>888</ele>
        <time>2018-06-03T14:09:06+02:00</time>
      </trkpt>
      <trkpt lat="47.96775" lon="6.94514">
        <ele>881</ele>
        <time>2018-06-03T14:09:11+02:00</time>
      </trkpt>
      <trkpt lat="47.96766" lon="6.94707">
        <ele>870</ele>
        <time>2018-06-03T14:09:16+02:00</time>
      </trkpt>
      <trkpt lat="47.96766" lon="6.94759">
        <ele>869</ele>
        <time>2018-06-03T14:09:21+02:00</time>
      </trkpt>
      <trkpt lat="47.96766" lon="6.94892">
        <ele>868</ele>
        <time>2018-06-03T14:09:26+02:00</time>
      </trkpt>
      <trkpt lat="47.96795" lon="6.95081">
        <ele>851</ele>
        <time>2018-06-03T14:09:31+02:00</time>
      </trkpt>
      <trkpt lat="47.96898" lon="6.95072">
        <ele>853</ele>
        <time>2018-06-03T14:09:36+02:00</time>
      </trkpt>
      <trkpt lat="47.96953" lon="6.95051">
        <ele>864</ele>
        <time>2018-06-03T14:09:41+02:00</time>
      </trkpt>
      <trkpt lat="47.97062" lon="6.95184">
        <ele>821</ele>
        <time>2018-06-03T14:09:46+02:00</time>
      </trkpt>
      <trkpt lat="47.97453" lon="6.95209">
        <ele>799</ele>
        <time>2018-06-03T14:09:51+02:00</time>
      </trkpt>
      <trkpt lat="47.97439" lon="6.95248">
        <ele>787</ele>
        <time>2018-06-03T14:09:56+02:00</time>
      </trkpt>
      <trkpt lat="47.97476" lon="6.95261">
        <ele>797</ele>
        <time>2018-06-03T14:10:01+02:00</time>
      </trkpt>
      <trkpt lat="47.97436" lon="6.95372">
        <ele>767</ele>
        <time>2018-06-03T14:10:06+02:00</time>
      </trkpt>
      <trkpt lat="47.97424" lon="6.95514">
        <ele>728</ele>
        <time>2018-06-03T14:10:11+02:00</time>
      </trkpt>
      <trkpt lat="47.97467" lon="6.95694">
        <ele>700</ele>
        <time>2018-06-03T14:10:16+02:00</time>
      </trkpt>
      <trkpt lat="47.97697" lon="6.9581">
        <ele>664</ele>
        <time>2018-06-03T14:10:21+02:00</time>
      </trkpt>
      <trkpt lat="47.9764" lon="6.95836">
        <ele>651</ele>
        <time>2018-06-03T14:10:26+02:00</time>
      </trkpt>
      <trkpt lat="47.97694" lon="6.95905">
        <ele>611</ele>
        <time>2018-06-03T14:10:31+02:00</time>
      </trkpt>
      <trkpt lat="47.97654" lon="6.95935">
        <ele>594</ele>
        <time>2018-06-03T14:10:36+02:00</time>
      </trkpt>
      <trkpt lat="47.97654" lon="6.96063">
        <ele>569</ele>
        <time>2018-06-03T14:10:41+02:00</time>
      </trkpt>
      <trkpt lat="47.97617" lon="6.96102">
        <ele>573</ele>
        <time>2018-06-03T14:10:46+02:00</time>
      </trkpt>
      <trkpt lat="47.97625" lon="6.96162">
        <ele>585</ele>
        <time>2018-06-03T14:10:51+02:00</time>
      </trkpt>
      <trkpt lat="47.97444" lon="6.96278">
        <ele>640</ele>
        <time>2018-06-03T14:10:56+02:00</time>
      </trkpt>
      <trkpt lat="47.97281" lon="6.96428">
        <ele>683</ele>
        <time>2018-06-03T14:11:01+02:00</time>
      </trkpt>
      <trkpt lat="47.97209" lon="6.9651">
        <ele>703</ele>
        <time>2018-06-03T14:11:06+02:00</time>
      </trkpt>
      <trkpt lat="47.972" lon="6.96681">
        <ele>730</ele>
        <time>2018-06-03T14:11:11+02:00</time>
      </trkpt>
      <trkpt lat="47.97197" lon="6.96776">
        <ele>742</ele>
        <time>2018-06-03T14:11:16+02:00</time>
      </trkpt>
      <trkpt lat="47.97166" lon="6.96892">
        <ele>759</ele>
        <time>2018-06-03T14:11:21+02:00</time>
      </trkpt>
      <trkpt lat="47.97355" lon="6.96913">
        <ele>782</ele>
        <time>2018-06-03T14:11:26+02:00</time>
      </trkpt>
      <trkpt lat="47.97358" lon="6.96969">
        <ele>802</ele>
        <time>2018-06-03T14:11:31+02:00</time>
      </trkpt>
      <trkpt lat="47.97597" lon="6.97093">
        <ele>839</ele>
        <time>2018-06-03T14:11:36+02:00</time>
      </trkpt>
      <trkpt lat="47.97602" lon="6.97128">
        <ele>847</ele>
        <time>2018-06-03T14:11:41+02:00</time>
      </trkpt>
      <trkpt lat="47.97407" lon="6.97136">
        <ele>859</ele>
        <time>2018-06-03T14:11:46+02:00</time>
      </trkpt>
      <trkpt lat="47.97439" lon="6.97158">
        <ele>865</ele>
        <time>2018-06-03T14:11:51+02:00</time>
      </trkpt>
      <trkpt lat="47.97292" lon="6.97235">
        <ele>902</ele>
        <time>2018-06-03T14:11:56+02:00</time>
      </trkpt>
      <trkpt lat="47.97456" lon="6.97287">
        <ele>915</ele>
        <time>2018-06-03T14:12:01+02:00</time>
      </trkpt>
      <trkpt lat="47.97493" lon="6.97415">
        <ele>941</ele>
        <time>2018-06-03T14:12:06+02:00</time>
      </trkpt>
      <trkpt lat="47.97571" lon="6.97651">
        <ele>972</ele>
        <time>2018-06-03T14:12:11+02:00</time>
      </trkpt>
      <trkpt lat="47.97467" lon="6.97565">
        <ele>980</ele>
        <time>2018-06-03T14:12:16+02:00</time>
      </trkpt>
      <trkpt lat="47.97352" lon="6.97467">
        <ele>981</ele>
        <time>2018-06-03T14:12:21+02:00</time>
      </trkpt>
      <trkpt lat="47.97424" lon="6.97643">
        <ele>1005</ele>
        <time>2018-06-03T14:12:26+02:00</time>
      </trkpt>
      <trkpt lat="47.97479" lon="6.97827">
        <ele>1038</ele>
        <time>2018-06-03T14:12:31+02:00</time>
      </trkpt>
      <trkpt lat="47.97513" lon="6.98012">
        <ele>1076</ele>
        <time>2018-06-03T14:12:36+02:00</time>
      </trkpt>
      <trkpt lat="47.97485" lon="6.98192">
        <ele>1091</ele>
        <time>2018-06-03T14:12:41+02:00</time>
      </trkpt>
      <trkpt lat="47.97476" lon="6.98398">
        <ele>1127</ele>
        <time>2018-06-03T14:12:46+02:00</time>
      </trkpt>
      <trkpt lat="47.97519" lon="6.98381">
        <ele>1138</ele>
        <time>2018-06-03T14:12:51+02:00</time>
      </trkpt>
      <trkpt lat="47.9751" lon="6.98428">
        <ele>1146</ele>
        <time>2018-06-03T14:12:56+02:00</time>
      </trkpt>
      <trkpt lat="47.97539" lon="6.98428">
        <ele>1155</ele>
        <time>2018-06-03T14:13:01+02:00</time>
      </trkpt>
      <trkpt lat="47.97617" lon="6.98347">
        <ele>1155</ele>
        <time>2018-06-03T14:13:06+02:00</time>
      </trkpt>
      <trkpt lat="47.97726" lon="6.98334">
        <ele>1163</ele>
        <time>2018-06-03T14:13:11+02:00</time>
      </trkpt>
      <trkpt lat="47.97832" lon="6.98334">
        <ele>1168</ele>
        <time>2018-06-03T14:13:16+02:00</time>
      </trkpt>
      <trkpt lat="47.97924" lon="6.98394">
        <ele>1179</ele>
        <time>2018-06-03T14:13:21+02:00</time>
      </trkpt>
      <trkpt lat="47.97878" lon="6.98514">
        <ele>1192</ele>
        <time>2018-06-03T14:13:26+02:00</time>
      </trkpt>
      <trkpt lat="47.97982" lon="6.98514">
        <ele>1186</ele>
        <time>2018-06-03T14:13:31+02:00</time>
      </trkpt>
      <trkpt lat="47.98099" lon="6.98381">
        <ele>1195</ele>
        <time>2018-06-03T14:13:36+02:00</time>
      </trkpt>
      <trkpt lat="47.98275" lon="6.98308">
        <ele>1214</ele>
        <time>2018-06-03T14:13:41+02:00</time>
      </trkpt>
      <trkpt lat="47.98358" lon="6.98244">
        <ele>1217</ele>
        <time>2018-06-03T14:13:46+02:00</time>
      </trkpt>
    </trkseg>
  </trk>
</gpx>